Time,TemperatureF,DewpointF,PressureIn,WindDirection,WindDirectionDegrees,WindSpeedMPH,WindSpeedGustMPH,Humidity,HourlyPrecipIn,Conditions,Clouds,dailyrainin,SolarRadiationWatts/m^2,SoftwareType,DateUTC
2013-05-04 00:00:00,54.4,38.1,30.07,NNW,338,0.0,1.0,54,0.00,,,0.00,0.00,VWS V14.00,2013-05-04 05:00:00,
2013-05-04 00:15:00,53.9,38.6,30.06,NNW,338,0.0,0.0,56,0.00,,,0.00,0.00,VWS V14.00,2013-05-04 05:15:00,
2013-05-04 00:30:00,53.4,38.1,30.06,NNW,338,0.0,0.0,56,0.00,,,0.00,0.00,VWS V14.00,2013-05-04 05:30:00,
2013-05-04 00:45:00,53.0,38.2,30.06,NNW,338,0.0,0.0,57,0.00,,,0.00,0.00,VWS V14.00,2013-05-04 05:45:00,
2013-05-04 01:00:00,52.6,38.3,30.05,NNW,338,0.0,0.0,58,0.00,,,0.00,0.00,VWS V14.00,2013-05-04 06:00:00,
2013-05-04 01:15:00,52.3,37.5,30.05,NNW,338,0.0,0.0,57,0.00,,,0.00,0.00,VWS V14.00,2013-05-04 06:15:00,
2013-05-04 01:30:00,52.0,37.7,30.05,NNW,338,0.0,0.0,58,0.00,,,0.00,0.00,VWS V14.00,2013-05-04 06:30:00,
2013-05-04 01:45:00,51.6,38.2,30.04,NNW,338,0.0,0.0,60,0.00,,,0.00,0.00,VWS V14.00,2013-05-04 06:45:00,
2013-05-04 02:00:00,51.3,37.5,30.03,NNW,338,0.0,0.0,59,0.00,,,0.00,0.00,VWS V14.00,2013-05-04 07:00:00,
2013-05-04 02:15:00,51.5,37.7,30.03,NNW,338,0.0,0.0,59,0.00,,,0.00,0.00,VWS V14.00,2013-05-04 07:15:00,
2013-05-04 02:30:00,51.5,37.2,30.02,NNW,338,0.0,0.0,58,0.00,,,0.00,0.00,VWS V14.00,2013-05-04 07:30:00,
2013-05-04 02:45:00,51.5,37.7,30.01,NNW,338,0.0,0.0,59,0.00,,,0.00,0.00,VWS V14.00,2013-05-04 07:45:00,
2013-05-04 03:00:00,51.3,38.3,30.02,NNW,338,0.0,0.0,61,0.00,,,0.00,0.00,VWS V14.00,2013-05-04 08:00:00,
2013-05-04 03:15:00,51.2,39.5,30.00,NNW,338,0.0,0.0,64,0.00,,,0.00,0.00,VWS V14.00,2013-05-04 08:15:00,
2013-05-04 03:36:00,50.9,40.3,30.00,NNW,338,0.0,0.0,67,0.00,,,0.00,0.00,VWS V14.00,2013-05-04 08:36:00,
2013-05-04 03:45:00,50.9,40.7,29.99,NNW,342,0.0,0.0,68,0.00,,,0.00,0.00,VWS V14.00,2013-05-04 08:45:00,
2013-05-04 04:00:00,51.0,41.2,29.99,North,0,0.0,0.0,69,0.00,,,0.00,0.00,VWS V14.00,2013-05-04 09:00:00,
2013-05-04 04:15:00,51.5,42.8,30.00,NNW,338,0.0,2.0,72,0.00,,,0.00,0.00,VWS V14.00,2013-05-04 09:15:00,
2013-05-04 04:30:00,51.5,43.1,29.99,NNW,338,0.0,0.0,73,0.00,,,0.00,0.00,VWS V14.00,2013-05-04 09:30:00,
2013-05-04 04:45:00,51.5,43.8,29.99,NNW,338,0.0,0.0,75,0.00,,,0.00,0.00,VWS V14.00,2013-05-04 09:45:00,
2013-05-04 05:00:00,51.5,44.5,29.98,NNW,338,0.0,0.0,77,0.00,,,0.00,0.00,VWS V14.00,2013-05-04 10:00:00,
2013-05-04 05:15:00,51.4,45.1,29.98,NNW,338,0.0,0.0,79,0.00,,,0.00,0.00,VWS V14.00,2013-05-04 10:15:00,
2013-05-04 05:30:00,51.5,45.2,29.98,NNW,338,0.0,0.0,79,0.00,,,0.00,0.00,VWS V14.00,2013-05-04 10:30:00,
2013-05-04 05:45:00,53.9,44.3,29.99,NNW,338,0.0,2.0,70,0.00,,,0.00,0.00,VWS V14.00,2013-05-04 10:45:00,
2013-05-04 06:00:00,56.1,46.8,29.98,NNW,338,0.0,4.0,71,0.00,,,0.00,0.00,VWS V14.00,2013-05-04 11:00:00,
2013-05-04 06:15:00,56.2,46.2,29.98,SW,225,0.0,3.0,69,0.00,,,0.00,0.00,VWS V14.00,2013-05-04 11:15:00,
2013-05-04 06:30:00,55.3,46.1,29.98,SW,225,0.0,2.0,71,0.00,,,0.00,0.00,VWS V14.00,2013-05-04 11:30:00,
2013-05-04 06:45:00,56.2,47.3,29.99,SW,225,0.0,2.0,72,0.00,,,0.00,2.00,VWS V14.00,2013-05-04 11:45:00,
2013-05-04 07:00:00,56.2,47.7,30.00,SW,225,0.0,3.0,73,0.00,,,0.00,12.00,VWS V14.00,2013-05-04 12:00:00,
2013-05-04 07:15:00,57.5,48.2,30.00,SW,225,2.0,4.0,71,0.00,,,0.00,25.00,VWS V14.00,2013-05-04 12:15:00,
2013-05-04 07:30:00,58.3,49.0,30.01,SW,225,1.0,4.0,71,0.00,,,0.00,80.00,VWS V14.00,2013-05-04 12:30:00,
2013-05-04 07:45:00,59.9,49.3,30.01,SW,225,1.0,5.0,68,0.00,,,0.00,138.00,VWS V14.00,2013-05-04 12:45:00,
2013-05-04 08:00:00,61.4,49.5,30.01,SSW,202,1.0,5.0,65,0.00,,,0.00,230.00,VWS V14.00,2013-05-04 13:00:00,
2013-05-04 08:15:00,62.7,49.5,30.01,SSW,202,2.0,6.0,62,0.00,,,0.00,293.00,VWS V14.00,2013-05-04 13:15:00,
2013-05-04 08:30:00,64.0,50.7,30.01,SSW,202,2.0,6.0,62,0.00,,,0.00,351.00,VWS V14.00,2013-05-04 13:30:00,
2013-05-04 08:45:00,64.7,50.5,30.01,SSW,202,3.0,9.0,60,0.00,,,0.00,411.00,VWS V14.00,2013-05-04 13:45:00,
2013-05-04 09:00:00,65.3,50.6,30.01,SSW,202,4.0,9.0,59,0.00,,,0.00,469.00,VWS V14.00,2013-05-04 14:00:00,
2013-05-04 09:15:00,65.8,50.2,30.01,South,180,4.0,10.0,57,0.00,,,0.00,523.00,VWS V14.00,2013-05-04 14:15:00,
2013-05-04 09:45:00,67.6,49.4,30.01,South,180,5.0,12.0,52,0.00,,,0.00,629.00,VWS V14.00,2013-05-04 14:45:00,
2013-05-04 10:00:00,68.6,49.2,30.02,SSW,202,6.0,14.0,50,0.00,,,0.00,679.00,VWS V14.00,2013-05-04 15:00:00,
2013-05-04 10:15:00,69.8,47.5,30.01,South,180,6.0,18.0,45,0.00,,,0.00,726.00,VWS V14.00,2013-05-04 15:15:00,
2013-05-04 10:30:00,70.2,46.7,30.02,South,180,6.0,15.0,43,0.00,,,0.00,771.00,VWS V14.00,2013-05-04 15:30:00,
2013-05-04 10:45:00,71.2,47.6,30.02,South,180,5.0,14.0,43,0.00,,,0.00,812.00,VWS V14.00,2013-05-04 15:45:00,
2013-05-04 11:00:00,71.5,49.7,30.01,SSW,202,6.0,15.0,46,0.00,,,0.00,849.00,VWS V14.00,2013-05-04 16:00:00,
2013-05-04 11:15:00,72.0,48.9,30.01,SSW,202,5.0,15.0,44,0.00,,,0.00,882.00,VWS V14.00,2013-05-04 16:15:00,
2013-05-04 11:30:00,73.8,46.6,30.01,SSW,202,3.0,10.0,38,0.00,,,0.00,917.00,VWS V14.00,2013-05-04 16:30:00,
2013-05-04 11:45:00,73.9,47.4,30.00,SSW,202,5.0,14.0,39,0.00,,,0.00,943.00,VWS V14.00,2013-05-04 16:45:00,
2013-05-04 12:00:00,74.5,48.6,29.99,SSW,202,5.0,15.0,40,0.00,,,0.00,966.00,VWS V14.00,2013-05-04 17:00:00,
2013-05-04 12:15:00,76.0,47.2,29.99,SSW,202,2.0,7.0,36,0.00,,,0.00,988.00,VWS V14.00,2013-05-04 17:15:00,
2013-05-04 12:30:00,76.0,46.4,29.98,SW,225,2.0,15.0,35,0.00,,,0.00,1006.00,VWS V14.00,2013-05-04 17:30:00,
2013-05-04 12:45:00,76.3,45.9,29.97,SW,225,3.0,11.0,34,0.00,,,0.00,1018.00,VWS V14.00,2013-05-04 17:45:00,
2013-05-04 13:00:00,77.0,46.5,29.96,SW,225,2.0,6.0,34,0.00,,,0.00,1026.00,VWS V14.00,2013-05-04 18:00:00,
2013-05-04 13:15:00,77.0,47.3,29.96,WSW,248,2.0,8.0,35,0.00,,,0.00,1028.00,VWS V14.00,2013-05-04 18:15:00,
2013-05-04 13:30:00,77.8,45.6,29.95,West,270,2.0,7.0,32,0.00,,,0.00,1029.00,VWS V14.00,2013-05-04 18:30:00,
2013-05-04 13:45:00,77.8,45.6,29.94,South,180,2.0,6.0,32,0.00,,,0.00,1024.00,VWS V14.00,2013-05-04 18:45:00,
2013-05-04 14:00:00,77.0,46.5,29.94,South,180,2.0,10.0,34,0.00,,,0.00,1014.00,VWS V14.00,2013-05-04 19:00:00,
2013-05-04 14:15:00,77.4,44.4,29.94,South,180,3.0,11.0,31,0.00,,,0.00,1004.00,VWS V14.00,2013-05-04 19:15:00,
2013-05-04 14:30:00,77.9,46.5,29.93,South,180,3.0,11.0,33,0.00,,,0.00,996.00,VWS V14.00,2013-05-04 19:30:00,
2013-05-04 14:45:00,77.8,44.8,29.92,SSW,202,4.0,11.0,31,0.00,,,0.00,740.00,VWS V14.00,2013-05-04 19:45:00,
2013-05-04 15:00:00,79.6,45.5,29.91,South,180,3.0,10.0,30,0.00,,,0.00,970.00,VWS V14.00,2013-05-04 20:00:00,
2013-05-04 15:15:00,78.9,46.6,29.91,SSW,202,4.0,12.0,32,0.00,,,0.00,932.00,VWS V14.00,2013-05-04 20:15:00,
2013-05-04 15:30:00,78.3,48.4,29.90,South,180,3.0,12.0,35,0.00,,,0.00,810.00,VWS V14.00,2013-05-04 20:30:00,
2013-05-04 15:45:00,78.3,47.7,29.90,SSW,202,3.0,10.0,34,0.00,,,0.00,769.00,VWS V14.00,2013-05-04 20:45:00,
2013-05-04 16:00:00,78.5,47.8,29.89,SSW,202,3.0,7.0,34,0.00,,,0.00,803.00,VWS V14.00,2013-05-04 21:00:00,
2013-05-04 16:30:00,77.8,50.9,29.88,SSW,202,5.0,13.0,39,0.00,,,0.00,712.00,VWS V14.00,2013-05-04 21:30:00,
2013-05-04 16:45:00,77.4,49.8,29.87,South,180,5.0,13.0,38,0.00,,,0.00,666.00,VWS V14.00,2013-05-04 21:45:00,
2013-05-04 17:00:00,77.3,51.1,29.87,South,180,5.0,13.0,40,0.00,,,0.00,620.00,VWS V14.00,2013-05-04 22:00:00,
2013-05-04 17:15:00,77.3,51.8,29.87,South,180,4.0,12.0,41,0.00,,,0.00,565.00,VWS V14.00,2013-05-04 22:15:00,
2013-05-04 17:30:00,77.0,51.5,29.86,South,180,4.0,12.0,41,0.00,,,0.00,513.00,VWS V14.00,2013-05-04 22:30:00,
2013-05-04 17:45:00,76.6,51.2,29.86,SSE,158,4.0,13.0,41,0.00,,,0.00,460.00,VWS V14.00,2013-05-04 22:45:00,
2013-05-04 18:00:00,76.2,52.1,29.86,SSE,158,4.0,12.0,43,0.00,,,0.00,415.00,VWS V14.00,2013-05-04 23:00:00,
2013-05-04 18:15:00,75.5,53.9,29.86,SSE,167,5.0,9.0,47,0.00,,,0.00,325.00,VWS V14.00,2013-05-04 23:15:00,
2013-05-04 18:30:00,74.1,53.7,29.86,South,174,1.0,12.0,49,0.00,,,0.00,292.00,VWS V14.00,2013-05-04 23:30:00,
2013-05-04 18:45:00,73.3,52.5,29.85,South,174,9.0,13.0,48,0.00,,,0.00,176.00,VWS V14.00,2013-05-04 23:45:00,
2013-05-04 19:00:00,71.6,53.1,29.86,South,180,4.0,12.0,52,0.00,,,0.00,88.00,VWS V14.00,2013-05-05 00:00:00,
2013-05-04 19:15:00,71.0,52.5,29.86,South,180,4.0,12.0,52,0.00,,,0.00,79.00,VWS V14.00,2013-05-05 00:15:00,
2013-05-04 19:30:00,70.4,53.0,29.86,South,180,5.0,13.0,54,0.00,,,0.00,63.00,VWS V14.00,2013-05-05 00:30:00,
2013-05-04 19:45:00,69.6,52.7,29.86,South,180,5.0,13.0,55,0.00,,,0.00,51.00,VWS V14.00,2013-05-05 00:45:00,
2013-05-04 20:00:00,68.9,53.5,29.86,South,180,5.0,16.0,58,0.00,,,0.00,15.00,VWS V14.00,2013-05-05 01:00:00,
2013-05-04 20:15:00,68.3,53.0,29.87,South,180,5.0,13.0,58,0.00,,,0.00,0.00,VWS V14.00,2013-05-05 01:15:00,
2013-05-04 20:30:00,68.0,52.7,29.87,South,180,4.0,11.0,58,0.00,,,0.00,0.00,VWS V14.00,2013-05-05 01:30:00,
2013-05-04 20:45:00,67.7,53.3,29.87,South,180,3.0,9.0,60,0.00,,,0.00,0.00,VWS V14.00,2013-05-05 01:45:00,
2013-05-04 21:00:00,67.5,53.6,29.88,South,180,4.0,10.0,61,0.00,,,0.00,0.00,VWS V14.00,2013-05-05 02:00:00,
2013-05-04 21:15:00,66.9,54.3,29.89,South,180,5.0,15.0,64,0.00,,,0.00,0.00,VWS V14.00,2013-05-05 02:15:00,
2013-05-04 21:30:00,66.2,54.5,29.89,South,180,4.0,11.0,66,0.00,,,0.00,0.00,VWS V14.00,2013-05-05 02:30:00,
2013-05-04 21:45:00,65.8,55.0,29.90,South,180,3.0,13.0,68,0.00,,,0.00,0.00,VWS V14.00,2013-05-05 02:45:00,
2013-05-04 22:00:00,65.5,55.5,29.91,South,180,3.0,8.0,70,0.00,,,0.00,0.00,VWS V14.00,2013-05-05 03:00:00,
2013-05-04 22:15:00,65.3,55.3,29.91,South,180,3.0,9.0,70,0.00,,,0.00,0.00,VWS V14.00,2013-05-05 03:15:00,
2013-05-04 22:30:00,65.3,56.0,29.91,South,180,3.0,9.0,72,0.00,,,0.00,0.00,VWS V14.00,2013-05-05 03:30:00,
2013-05-04 22:45:00,65.4,56.2,29.92,South,180,3.0,11.0,72,0.00,,,0.00,0.00,VWS V14.00,2013-05-05 03:45:00,
2013-05-04 23:00:00,65.5,56.6,29.92,South,180,3.0,12.0,73,0.00,,,0.00,0.00,VWS V14.00,2013-05-05 04:00:00,
2013-05-04 23:15:00,65.3,56.4,29.92,South,180,4.0,11.0,73,0.00,,,0.00,0.00,VWS V14.00,2013-05-05 04:15:00,
2013-05-04 23:30:00,65.2,56.7,29.92,South,180,3.0,10.0,74,0.00,,,0.00,0.00,VWS V14.00,2013-05-05 04:30:00,
2013-05-04 23:45:00,65.2,56.7,29.92,South,180,3.0,11.0,74,0.00,,,0.00,0.00,VWS V14.00,2013-05-05 04:45:00,